sensor_id;sensor_type;location;lat;lon;timestamp;P1;durP1;ratioP1;P2;durP2;ratioP2
73084;SDS011;62974;49.460;10.892;2022-11-11T00:01:37;2.88;;;1.50;;
73084;SDS011;62974;49.460;10.892;2022-11-11T00:04:06;2.05;;;1.45;;
73084;SDS011;62974;49.460;10.892;2022-11-11T00:09:01;3.35;;;2.13;;
73084;SDS011;62974;49.460;10.892;2022-11-11T00:11:29;5.68;;;2.25;;
73084;SDS011;62974;49.460;10.892;2022-11-11T00:13:56;4.50;;;1.83;;
73084;SDS011;62974;49.460;10.892;2022-11-11T00:16:24;5.05;;;2.22;;
73084;SDS011;62974;49.460;10.892;2022-11-11T00:19:12;4.18;;;1.92;;
73084;SDS011;62974;49.460;10.892;2022-11-11T00:21:58;5.72;;;2.47;;
73084;SDS011;62974;49.460;10.892;2022-11-11T00:24:42;3.50;;;1.85;;
73084;SDS011;62974;49.460;10.892;2022-11-11T00:27:27;2.88;;;1.83;;
73084;SDS011;62974;49.460;10.892;2022-11-11T00:29:55;4.25;;;1.90;;
73084;SDS011;62974;49.460;10.892;2022-11-11T00:32:22;3.05;;;1.77;;
73084;SDS011;62974;49.460;10.892;2022-11-11T00:34:54;2.45;;;1.58;;
73084;SDS011;62974;49.460;10.892;2022-11-11T00:37:40;4.10;;;1.90;;
73084;SDS011;62974;49.460;10.892;2022-11-11T00:40:10;5.68;;;2.25;;
73084;SDS011;62974;49.460;10.892;2022-11-11T00:42:38;3.55;;;2.35;;
73084;SDS011;62974;49.460;10.892;2022-11-11T00:45:07;2.63;;;2.05;;
73084;SDS011;62974;49.460;10.892;2022-11-11T00:47:36;2.72;;;1.60;;
73084;SDS011;62974;49.460;10.892;2022-11-11T00:50:25;2.92;;;1.90;;
73084;SDS011;62974;49.460;10.892;2022-11-11T00:53:12;3.42;;;2.00;;
73084;SDS011;62974;49.460;10.892;2022-11-11T00:55:40;4.40;;;2.13;;
73084;SDS011;62974;49.460;10.892;2022-11-11T00:58:08;5.35;;;2.33;;
73084;SDS011;62974;49.460;10.892;2022-11-11T01:00:36;4.40;;;2.22;;
73084;SDS011;62974;49.460;10.892;2022-11-11T01:03:03;4.70;;;2.45;;
73084;SDS011;62974;49.460;10.892;2022-11-11T01:05:32;5.90;;;2.75;;
73084;SDS011;62974;49.460;10.892;2022-11-11T01:10:27;5.63;;;2.28;;
73084;SDS011;62974;49.460;10.892;2022-11-11T01:13:05;4.57;;;2.65;;
73084;SDS011;62974;49.460;10.892;2022-11-11T01:15:39;6.53;;;2.55;;
73084;SDS011;62974;49.460;10.892;2022-11-11T01:18:08;4.63;;;2.53;;
73084;SDS011;62974;49.460;10.892;2022-11-11T01:23:07;4.88;;;2.40;;
73084;SDS011;62974;49.460;10.892;2022-11-11T01:25:37;6.93;;;2.92;;
73084;SDS011;62974;49.460;10.892;2022-11-11T01:28:07;3.83;;;2.40;;
73084;SDS011;62974;49.460;10.892;2022-11-11T01:30:35;3.97;;;2.50;;
73084;SDS011;62974;49.460;10.892;2022-11-11T01:33:04;4.78;;;2.78;;
73084;SDS011;62974;49.460;10.892;2022-11-11T01:35:31;5.40;;;2.80;;
73084;SDS011;62974;49.460;10.892;2022-11-11T01:38:00;4.43;;;2.47;;
73084;SDS011;62974;49.460;10.892;2022-11-11T01:40:28;3.70;;;2.28;;
73084;SDS011;62974;49.460;10.892;2022-11-11T01:45:48;7.07;;;2.75;;
73084;SDS011;62974;49.460;10.892;2022-11-11T01:48:21;5.10;;;2.47;;
73084;SDS011;62974;49.460;10.892;2022-11-11T01:51:13;6.55;;;2.47;;
73084;SDS011;62974;49.460;10.892;2022-11-11T01:53:47;5.05;;;2.70;;
73084;SDS011;62974;49.460;10.892;2022-11-11T01:56:28;5.00;;;2.67;;
73084;SDS011;62974;49.460;10.892;2022-11-11T01:58:58;4.75;;;2.72;;
73084;SDS011;62974;49.460;10.892;2022-11-11T02:01:29;4.13;;;2.60;;
73084;SDS011;62974;49.460;10.892;2022-11-11T02:03:57;5.15;;;2.70;;
73084;SDS011;62974;49.460;10.892;2022-11-11T02:06:48;5.95;;;2.72;;
73084;SDS011;62974;49.460;10.892;2022-11-11T02:09:21;5.00;;;2.03;;
73084;SDS011;62974;49.460;10.892;2022-11-11T02:11:50;4.28;;;2.42;;
73084;SDS011;62974;49.460;10.892;2022-11-11T02:17:09;4.40;;;2.30;;
73084;SDS011;62974;49.460;10.892;2022-11-11T02:19:43;3.78;;;2.10;;
73084;SDS011;62974;49.460;10.892;2022-11-11T02:22:17;3.42;;;2.13;;
73084;SDS011;62974;49.460;10.892;2022-11-11T02:24:51;3.67;;;1.90;;
73084;SDS011;62974;49.460;10.892;2022-11-11T02:27:20;4.80;;;2.15;;
73084;SDS011;62974;49.460;10.892;2022-11-11T02:29:51;3.97;;;2.03;;
73084;SDS011;62974;49.460;10.892;2022-11-11T02:32:21;4.47;;;2.28;;
73084;SDS011;62974;49.460;10.892;2022-11-11T02:34:49;5.05;;;2.90;;
73084;SDS011;62974;49.460;10.892;2022-11-11T02:37:19;4.15;;;1.90;;
73084;SDS011;62974;49.460;10.892;2022-11-11T02:39:53;6.85;;;2.60;;
73084;SDS011;62974;49.460;10.892;2022-11-11T02:42:31;4.88;;;2.33;;
73084;SDS011;62974;49.460;10.892;2022-11-11T02:45:01;3.10;;;1.75;;
73084;SDS011;62974;49.460;10.892;2022-11-11T02:47:29;3.22;;;1.98;;
73084;SDS011;62974;49.460;10.892;2022-11-11T02:49:57;2.80;;;1.90;;
73084;SDS011;62974;49.460;10.892;2022-11-11T02:52:25;3.80;;;2.22;;
73084;SDS011;62974;49.460;10.892;2022-11-11T02:54:54;4.80;;;2.58;;
73084;SDS011;62974;49.460;10.892;2022-11-11T02:57:21;4.45;;;2.15;;
73084;SDS011;62974;49.460;10.892;2022-11-11T02:59:49;4.35;;;2.55;;
73084;SDS011;62974;49.460;10.892;2022-11-11T03:02:16;3.88;;;2.03;;
73084;SDS011;62974;49.460;10.892;2022-11-11T03:04:44;5.38;;;2.05;;
73084;SDS011;62974;49.460;10.892;2022-11-11T03:07:11;7.05;;;2.20;;
73084;SDS011;62974;49.460;10.892;2022-11-11T03:09:39;5.50;;;2.30;;
73084;SDS011;62974;49.460;10.892;2022-11-11T03:12:08;5.93;;;2.65;;
73084;SDS011;62974;49.460;10.892;2022-11-11T03:14:36;3.63;;;2.15;;
73084;SDS011;62974;49.460;10.892;2022-11-11T03:17:03;4.55;;;2.50;;
73084;SDS011;62974;49.460;10.892;2022-11-11T03:19:49;3.70;;;2.50;;
73084;SDS011;62974;49.460;10.892;2022-11-11T03:22:16;4.43;;;2.45;;
73084;SDS011;62974;49.460;10.892;2022-11-11T03:25:03;2.78;;;1.50;;
73084;SDS011;62974;49.460;10.892;2022-11-11T03:27:50;5.78;;;2.45;;
73084;SDS011;62974;49.460;10.892;2022-11-11T03:30:17;5.28;;;2.30;;
73084;SDS011;62974;49.460;10.892;2022-11-11T03:32:45;3.55;;;2.13;;
73084;SDS011;62974;49.460;10.892;2022-11-11T03:35:12;6.38;;;2.55;;
73084;SDS011;62974;49.460;10.892;2022-11-11T03:37:39;3.45;;;2.28;;
73084;SDS011;62974;49.460;10.892;2022-11-11T03:40:25;4.93;;;2.28;;
73084;SDS011;62974;49.460;10.892;2022-11-11T03:42:55;5.57;;;2.40;;
73084;SDS011;62974;49.460;10.892;2022-11-11T03:45:29;4.20;;;2.20;;
73084;SDS011;62974;49.460;10.892;2022-11-11T03:47:57;4.38;;;2.15;;
73084;SDS011;62974;49.460;10.892;2022-11-11T03:50:24;4.03;;;2.10;;
73084;SDS011;62974;49.460;10.892;2022-11-11T03:52:52;3.85;;;2.10;;
73084;SDS011;62974;49.460;10.892;2022-11-11T03:55:19;4.22;;;2.13;;
73084;SDS011;62974;49.460;10.892;2022-11-11T03:57:47;5.07;;;2.45;;
73084;SDS011;62974;49.460;10.892;2022-11-11T04:00:17;4.65;;;2.10;;
73084;SDS011;62974;49.460;10.892;2022-11-11T04:02:46;3.90;;;2.20;;
73084;SDS011;62974;49.460;10.892;2022-11-11T04:05:31;6.25;;;2.65;;
73084;SDS011;62974;49.460;10.892;2022-11-11T04:08:17;4.70;;;2.63;;
73084;SDS011;62974;49.460;10.892;2022-11-11T04:11:04;5.13;;;2.05;;
73084;SDS011;62974;49.460;10.892;2022-11-11T04:13:35;7.22;;;2.20;;
73084;SDS011;62974;49.460;10.892;2022-11-11T04:16:21;3.53;;;2.20;;
73084;SDS011;62974;49.460;10.892;2022-11-11T04:18:49;3.00;;;2.00;;
73084;SDS011;62974;49.460;10.892;2022-11-11T04:21:34;4.55;;;2.00;;
73084;SDS011;62974;49.460;10.892;2022-11-11T04:24:11;4.63;;;2.97;;
73084;SDS011;62974;49.460;10.892;2022-11-11T04:26:58;4.57;;;2.45;;
73084;SDS011;62974;49.460;10.892;2022-11-11T04:29:27;4.85;;;2.10;;
73084;SDS011;62974;49.460;10.892;2022-11-11T04:31:56;3.17;;;2.35;;
73084;SDS011;62974;49.460;10.892;2022-11-11T04:34:43;3.20;;;1.92;;
73084;SDS011;62974;49.460;10.892;2022-11-11T04:37:12;4.63;;;2.22;;
73084;SDS011;62974;49.460;10.892;2022-11-11T04:39:40;3.90;;;2.15;;
73084;SDS011;62974;49.460;10.892;2022-11-11T04:42:26;6.93;;;3.20;;
73084;SDS011;62974;49.460;10.892;2022-11-11T04:44:54;4.72;;;2.60;;
73084;SDS011;62974;49.460;10.892;2022-11-11T04:47:52;5.53;;;2.28;;
73084;SDS011;62974;49.460;10.892;2022-11-11T04:50:21;4.95;;;2.50;;
73084;SDS011;62974;49.460;10.892;2022-11-11T04:52:49;5.80;;;2.55;;
73084;SDS011;62974;49.460;10.892;2022-11-11T04:55:18;4.53;;;2.45;;
73084;SDS011;62974;49.460;10.892;2022-11-11T04:58:03;3.85;;;2.08;;
73084;SDS011;62974;49.460;10.892;2022-11-11T05:00:31;3.83;;;2.33;;
73084;SDS011;62974;49.460;10.892;2022-11-11T05:03:00;5.63;;;2.45;;
73084;SDS011;62974;49.460;10.892;2022-11-11T05:05:44;3.58;;;2.15;;
73084;SDS011;62974;49.460;10.892;2022-11-11T05:08:29;4.60;;;2.58;;
73084;SDS011;62974;49.460;10.892;2022-11-11T05:11:15;5.78;;;2.40;;
73084;SDS011;62974;49.460;10.892;2022-11-11T05:13:43;3.65;;;2.47;;
73084;SDS011;62974;49.460;10.892;2022-11-11T05:16:29;3.65;;;2.05;;
73084;SDS011;62974;49.460;10.892;2022-11-11T05:19:18;5.15;;;2.00;;
73084;SDS011;62974;49.460;10.892;2022-11-11T05:22:05;4.05;;;2.22;;
73084;SDS011;62974;49.460;10.892;2022-11-11T05:24:37;3.90;;;2.10;;
73084;SDS011;62974;49.460;10.892;2022-11-11T05:27:22;4.53;;;2.35;;
73084;SDS011;62974;49.460;10.892;2022-11-11T05:29:50;3.13;;;2.13;;
73084;SDS011;62974;49.460;10.892;2022-11-11T05:32:18;3.65;;;1.60;;
73084;SDS011;62974;49.460;10.892;2022-11-11T05:34:48;5.68;;;2.28;;
73084;SDS011;62974;49.460;10.892;2022-11-11T05:37:16;5.35;;;3.00;;
73084;SDS011;62974;49.460;10.892;2022-11-11T05:39:43;3.40;;;2.35;;
73084;SDS011;62974;49.460;10.892;2022-11-11T05:42:11;6.25;;;3.55;;
73084;SDS011;62974;49.460;10.892;2022-11-11T05:44:39;7.65;;;4.18;;
73084;SDS011;62974;49.460;10.892;2022-11-11T05:47:07;4.60;;;3.72;;
73084;SDS011;62974;49.460;10.892;2022-11-11T05:49:34;6.20;;;3.40;;
73084;SDS011;62974;49.460;10.892;2022-11-11T05:52:03;5.38;;;2.80;;
73084;SDS011;62974;49.460;10.892;2022-11-11T05:54:32;7.57;;;3.97;;
73084;SDS011;62974;49.460;10.892;2022-11-11T05:56:59;6.78;;;3.08;;
73084;SDS011;62974;49.460;10.892;2022-11-11T05:59:27;8.68;;;3.80;;
73084;SDS011;62974;49.460;10.892;2022-11-11T06:01:54;7.18;;;3.08;;
73084;SDS011;62974;49.460;10.892;2022-11-11T06:04:22;5.18;;;2.65;;
73084;SDS011;62974;49.460;10.892;2022-11-11T06:06:49;5.32;;;2.90;;
73084;SDS011;62974;49.460;10.892;2022-11-11T06:09:18;3.97;;;2.10;;
73084;SDS011;62974;49.460;10.892;2022-11-11T06:11:46;6.43;;;2.55;;
73084;SDS011;62974;49.460;10.892;2022-11-11T06:14:13;4.15;;;2.40;;
73084;SDS011;62974;49.460;10.892;2022-11-11T06:16:41;4.47;;;2.55;;
73084;SDS011;62974;49.460;10.892;2022-11-11T06:19:08;6.32;;;2.63;;
73084;SDS011;62974;49.460;10.892;2022-11-11T06:21:36;3.65;;;2.03;;
73084;SDS011;62974;49.460;10.892;2022-11-11T06:24:18;4.10;;;2.42;;
73084;SDS011;62974;49.460;10.892;2022-11-11T06:26:51;5.82;;;2.28;;
73084;SDS011;62974;49.460;10.892;2022-11-11T06:29:20;5.72;;;2.42;;
73084;SDS011;62974;49.460;10.892;2022-11-11T06:31:47;3.63;;;2.40;;
73084;SDS011;62974;49.460;10.892;2022-11-11T06:34:15;5.82;;;2.80;;
73084;SDS011;62974;49.460;10.892;2022-11-11T06:36:42;3.75;;;2.35;;
73084;SDS011;62974;49.460;10.892;2022-11-11T06:39:10;2.95;;;1.88;;
73084;SDS011;62974;49.460;10.892;2022-11-11T06:41:38;3.92;;;2.22;;
73084;SDS011;62974;49.460;10.892;2022-11-11T06:44:06;3.92;;;2.38;;
73084;SDS011;62974;49.460;10.892;2022-11-11T06:46:33;3.17;;;2.33;;
73084;SDS011;62974;49.460;10.892;2022-11-11T06:49:01;7.65;;;2.55;;
73084;SDS011;62974;49.460;10.892;2022-11-11T06:51:28;3.80;;;2.30;;
73084;SDS011;62974;49.460;10.892;2022-11-11T06:53:56;4.07;;;2.53;;
73084;SDS011;62974;49.460;10.892;2022-11-11T06:56:23;4.45;;;2.72;;
73084;SDS011;62974;49.460;10.892;2022-11-11T06:58:52;3.97;;;2.63;;
73084;SDS011;62974;49.460;10.892;2022-11-11T07:01:20;6.40;;;2.97;;
73084;SDS011;62974;49.460;10.892;2022-11-11T07:03:47;5.05;;;2.72;;
73084;SDS011;62974;49.460;10.892;2022-11-11T07:06:14;3.78;;;2.35;;
73084;SDS011;62974;49.460;10.892;2022-11-11T07:08:42;4.78;;;2.28;;
73084;SDS011;62974;49.460;10.892;2022-11-11T07:11:09;6.60;;;2.33;;
73084;SDS011;62974;49.460;10.892;2022-11-11T07:13:43;4.63;;;2.55;;
73084;SDS011;62974;49.460;10.892;2022-11-11T07:16:12;4.35;;;2.60;;
73084;SDS011;62974;49.460;10.892;2022-11-11T07:18:40;3.80;;;2.45;;
73084;SDS011;62974;49.460;10.892;2022-11-11T07:21:07;5.03;;;2.88;;
73084;SDS011;62974;49.460;10.892;2022-11-11T07:23:35;8.65;;;3.58;;
73084;SDS011;62974;49.460;10.892;2022-11-11T07:26:02;6.75;;;3.72;;
73084;SDS011;62974;49.460;10.892;2022-11-11T07:28:30;4.30;;;2.65;;
73084;SDS011;62974;49.460;10.892;2022-11-11T07:30:57;10.05;;;2.78;;
73084;SDS011;62974;49.460;10.892;2022-11-11T07:33:26;4.38;;;2.50;;
73084;SDS011;62974;49.460;10.892;2022-11-11T07:35:53;5.72;;;3.10;;
73084;SDS011;62974;49.460;10.892;2022-11-11T07:38:21;6.25;;;2.50;;
73084;SDS011;62974;49.460;10.892;2022-11-11T07:40:55;5.50;;;2.67;;
73084;SDS011;62974;49.460;10.892;2022-11-11T07:43:23;5.05;;;2.38;;
73084;SDS011;62974;49.460;10.892;2022-11-11T07:45:50;8.75;;;2.47;;
73084;SDS011;62974;49.460;10.892;2022-11-11T07:48:18;4.82;;;2.60;;
73084;SDS011;62974;49.460;10.892;2022-11-11T07:50:46;4.80;;;2.47;;
73084;SDS011;62974;49.460;10.892;2022-11-11T07:53:14;5.78;;;3.17;;
73084;SDS011;62974;49.460;10.892;2022-11-11T07:55:43;6.03;;;2.88;;
73084;SDS011;62974;49.460;10.892;2022-11-11T07:58:11;5.43;;;2.92;;
73084;SDS011;62974;49.460;10.892;2022-11-11T08:00:38;6.10;;;2.83;;
73084;SDS011;62974;49.460;10.892;2022-11-11T08:03:06;5.75;;;2.78;;
73084;SDS011;62974;49.460;10.892;2022-11-11T08:05:34;7.82;;;2.22;;
73084;SDS011;62974;49.460;10.892;2022-11-11T08:08:03;4.75;;;3.25;;
73084;SDS011;62974;49.460;10.892;2022-11-11T08:10:32;3.90;;;2.40;;
73084;SDS011;62974;49.460;10.892;2022-11-11T08:13:00;5.82;;;3.65;;
73084;SDS011;62974;49.460;10.892;2022-11-11T08:15:46;6.07;;;2.50;;
73084;SDS011;62974;49.460;10.892;2022-11-11T08:18:13;4.85;;;2.55;;
73084;SDS011;62974;49.460;10.892;2022-11-11T08:20:41;4.90;;;2.50;;
73084;SDS011;62974;49.460;10.892;2022-11-11T08:23:15;3.65;;;2.60;;
73084;SDS011;62974;49.460;10.892;2022-11-11T08:26:08;5.80;;;2.83;;
73084;SDS011;62974;49.460;10.892;2022-11-11T08:28:36;4.70;;;2.90;;
73084;SDS011;62974;49.460;10.892;2022-11-11T08:31:03;5.00;;;2.88;;
73084;SDS011;62974;49.460;10.892;2022-11-11T08:33:31;6.38;;;2.78;;
73084;SDS011;62974;49.460;10.892;2022-11-11T08:36:00;4.70;;;2.65;;
73084;SDS011;62974;49.460;10.892;2022-11-11T08:38:29;4.50;;;3.20;;
73084;SDS011;62974;49.460;10.892;2022-11-11T08:40:58;4.65;;;2.08;;
73084;SDS011;62974;49.460;10.892;2022-11-11T08:43:26;4.53;;;2.60;;
73084;SDS011;62974;49.460;10.892;2022-11-11T08:46:02;5.10;;;2.83;;
73084;SDS011;62974;49.460;10.892;2022-11-11T08:48:31;5.57;;;2.90;;
73084;SDS011;62974;49.460;10.892;2022-11-11T08:50:58;5.13;;;3.20;;
73084;SDS011;62974;49.460;10.892;2022-11-11T08:53:26;4.63;;;2.03;;
73084;SDS011;62974;49.460;10.892;2022-11-11T08:55:55;5.97;;;3.28;;
73084;SDS011;62974;49.460;10.892;2022-11-11T08:58:23;5.88;;;3.35;;
73084;SDS011;62974;49.460;10.892;2022-11-11T09:00:50;5.85;;;3.28;;
73084;SDS011;62974;49.460;10.892;2022-11-11T09:03:18;12.93;;;4.57;;
73084;SDS011;62974;49.460;10.892;2022-11-11T09:05:45;8.55;;;3.95;;
73084;SDS011;62974;49.460;10.892;2022-11-11T09:08:13;8.88;;;3.40;;
73084;SDS011;62974;49.460;10.892;2022-11-11T09:10:40;8.40;;;4.57;;
73084;SDS011;62974;49.460;10.892;2022-11-11T09:13:09;12.23;;;5.07;;
73084;SDS011;62974;49.460;10.892;2022-11-11T09:18:04;8.93;;;4.25;;
73084;SDS011;62974;49.460;10.892;2022-11-11T09:20:32;8.02;;;3.95;;
73084;SDS011;62974;49.460;10.892;2022-11-11T09:22:59;8.60;;;4.30;;
73084;SDS011;62974;49.460;10.892;2022-11-11T09:25:27;13.63;;;5.95;;
73084;SDS011;62974;49.460;10.892;2022-11-11T09:27:54;6.95;;;3.55;;
73084;SDS011;62974;49.460;10.892;2022-11-11T09:30:24;11.25;;;4.63;;
73084;SDS011;62974;49.460;10.892;2022-11-11T09:32:52;7.07;;;3.63;;
73084;SDS011;62974;49.460;10.892;2022-11-11T09:35:20;12.70;;;5.32;;
73084;SDS011;62974;49.460;10.892;2022-11-11T09:37:54;15.13;;;7.47;;
73084;SDS011;62974;49.460;10.892;2022-11-11T09:40:24;15.65;;;6.85;;
73084;SDS011;62974;49.460;10.892;2022-11-11T09:42:55;14.45;;;6.65;;
73084;SDS011;62974;49.460;10.892;2022-11-11T09:45:35;16.52;;;7.90;;
73084;SDS011;62974;49.460;10.892;2022-11-11T09:48:23;15.88;;;6.03;;
73084;SDS011;62974;49.460;10.892;2022-11-11T09:51:00;10.95;;;4.45;;
73084;SDS011;62974;49.460;10.892;2022-11-11T09:53:32;16.92;;;7.30;;
73084;SDS011;62974;49.460;10.892;2022-11-11T09:56:05;17.02;;;6.93;;
73084;SDS011;62974;49.460;10.892;2022-11-11T09:58:56;20.13;;;8.15;;
73084;SDS011;62974;49.460;10.892;2022-11-11T10:01:31;15.27;;;6.35;;
73084;SDS011;62974;49.460;10.892;2022-11-11T10:06:38;11.63;;;4.28;;
73084;SDS011;62974;49.460;10.892;2022-11-11T10:09:06;12.70;;;6.18;;
73084;SDS011;62974;49.460;10.892;2022-11-11T10:11:46;13.75;;;5.57;;
73084;SDS011;62974;49.460;10.892;2022-11-11T10:14:17;22.05;;;9.82;;
73084;SDS011;62974;49.460;10.892;2022-11-11T10:16:49;14.40;;;5.90;;
73084;SDS011;62974;49.460;10.892;2022-11-11T10:19:27;17.23;;;7.93;;
73084;SDS011;62974;49.460;10.892;2022-11-11T10:21:57;10.98;;;4.80;;
73084;SDS011;62974;49.460;10.892;2022-11-11T10:24:41;13.60;;;7.07;;
73084;SDS011;62974;49.460;10.892;2022-11-11T10:27:17;10.18;;;4.28;;
73084;SDS011;62974;49.460;10.892;2022-11-11T10:29:46;14.48;;;6.80;;
73084;SDS011;62974;49.460;10.892;2022-11-11T10:32:17;17.92;;;7.63;;
73084;SDS011;62974;49.460;10.892;2022-11-11T10:34:47;13.30;;;6.35;;
73084;SDS011;62974;49.460;10.892;2022-11-11T10:37:17;14.70;;;6.20;;
73084;SDS011;62974;49.460;10.892;2022-11-11T10:39:51;11.65;;;5.57;;
73084;SDS011;62974;49.460;10.892;2022-11-11T10:42:26;2.58;;;1.88;;
73084;SDS011;62974;49.460;10.892;2022-11-11T10:44:55;10.55;;;5.47;;
73084;SDS011;62974;49.460;10.892;2022-11-11T10:47:34;15.85;;;7.43;;
73084;SDS011;62974;49.460;10.892;2022-11-11T10:50:14;17.17;;;7.82;;
73084;SDS011;62974;49.460;10.892;2022-11-11T10:52:47;14.40;;;5.72;;
73084;SDS011;62974;49.460;10.892;2022-11-11T10:55:21;11.35;;;5.22;;
73084;SDS011;62974;49.460;10.892;2022-11-11T10:57:53;15.80;;;6.80;;
73084;SDS011;62974;49.460;10.892;2022-11-11T11:00:25;21.55;;;9.40;;
73084;SDS011;62974;49.460;10.892;2022-11-11T11:05:26;12.40;;;6.80;;
73084;SDS011;62974;49.460;10.892;2022-11-11T11:07:59;16.80;;;7.97;;
73084;SDS011;62974;49.460;10.892;2022-11-11T11:10:35;11.00;;;5.10;;
73084;SDS011;62974;49.460;10.892;2022-11-11T11:13:07;16.75;;;8.07;;
73084;SDS011;62974;49.460;10.892;2022-11-11T11:15:41;22.67;;;10.15;;
73084;SDS011;62974;49.460;10.892;2022-11-11T11:18:15;22.83;;;10.52;;
73084;SDS011;62974;49.460;10.892;2022-11-11T11:20:53;16.13;;;7.32;;
73084;SDS011;62974;49.460;10.892;2022-11-11T11:23:33;13.15;;;5.75;;
73084;SDS011;62974;49.460;10.892;2022-11-11T11:26:02;13.65;;;6.82;;
73084;SDS011;62974;49.460;10.892;2022-11-11T11:28:30;11.02;;;5.63;;
73084;SDS011;62974;49.460;10.892;2022-11-11T11:31:00;12.82;;;6.22;;
73084;SDS011;62974;49.460;10.892;2022-11-11T11:36:19;13.85;;;6.75;;
73084;SDS011;62974;49.460;10.892;2022-11-11T11:38:47;13.02;;;6.65;;
73084;SDS011;62974;49.460;10.892;2022-11-11T11:41:16;13.35;;;6.65;;
73084;SDS011;62974;49.460;10.892;2022-11-11T11:44:01;12.05;;;6.20;;
73084;SDS011;62974;49.460;10.892;2022-11-11T11:46:30;10.05;;;4.28;;
73084;SDS011;62974;49.460;10.892;2022-11-11T11:49:08;8.65;;;4.53;;
73084;SDS011;62974;49.460;10.892;2022-11-11T11:51:48;14.02;;;5.78;;
73084;SDS011;62974;49.460;10.892;2022-11-11T11:54:34;12.07;;;5.07;;
73084;SDS011;62974;49.460;10.892;2022-11-11T11:57:22;11.52;;;6.60;;
73084;SDS011;62974;49.460;10.892;2022-11-11T11:59:57;11.60;;;6.00;;
73084;SDS011;62974;49.460;10.892;2022-11-11T12:02:38;10.85;;;5.00;;
73084;SDS011;62974;49.460;10.892;2022-11-11T12:05:19;9.52;;;5.60;;
73084;SDS011;62974;49.460;10.892;2022-11-11T12:08:02;9.60;;;4.47;;
73084;SDS011;62974;49.460;10.892;2022-11-11T12:10:42;10.15;;;4.95;;
73084;SDS011;62974;49.460;10.892;2022-11-11T12:13:20;8.68;;;4.72;;
73084;SDS011;62974;49.460;10.892;2022-11-11T12:18:40;13.00;;;4.03;;
73084;SDS011;62974;49.460;10.892;2022-11-11T12:21:30;7.82;;;3.60;;
73084;SDS011;62974;49.460;10.892;2022-11-11T12:24:11;11.55;;;3.83;;
73084;SDS011;62974;49.460;10.892;2022-11-11T12:27:00;7.57;;;4.55;;
73084;SDS011;62974;49.460;10.892;2022-11-11T12:29:44;8.52;;;4.20;;
73084;SDS011;62974;49.460;10.892;2022-11-11T12:32:28;8.00;;;3.80;;
73084;SDS011;62974;49.460;10.892;2022-11-11T12:35:19;11.48;;;4.65;;
73084;SDS011;62974;49.460;10.892;2022-11-11T12:38:01;8.32;;;4.60;;
73084;SDS011;62974;49.460;10.892;2022-11-11T12:40:44;9.80;;;3.55;;
73084;SDS011;62974;49.460;10.892;2022-11-11T12:43:27;8.27;;;4.18;;
73084;SDS011;62974;49.460;10.892;2022-11-11T12:46:03;7.93;;;4.47;;
73084;SDS011;62974;49.460;10.892;2022-11-11T12:48:42;8.13;;;3.85;;
73084;SDS011;62974;49.460;10.892;2022-11-11T12:51:24;6.55;;;3.35;;
73084;SDS011;62974;49.460;10.892;2022-11-11T12:54:08;8.27;;;3.80;;
73084;SDS011;62974;49.460;10.892;2022-11-11T12:56:47;9.30;;;3.38;;
73084;SDS011;62974;49.460;10.892;2022-11-11T12:59:23;9.18;;;3.75;;
73084;SDS011;62974;49.460;10.892;2022-11-11T13:02:01;8.40;;;3.25;;
73084;SDS011;62974;49.460;10.892;2022-11-11T13:04:46;6.93;;;3.08;;
73084;SDS011;62974;49.460;10.892;2022-11-11T13:07:26;7.57;;;3.10;;
73084;SDS011;62974;49.460;10.892;2022-11-11T13:10:22;5.65;;;2.97;;
73084;SDS011;62974;49.460;10.892;2022-11-11T13:12:59;6.90;;;3.60;;
73084;SDS011;62974;49.460;10.892;2022-11-11T13:15:39;5.53;;;3.25;;
73084;SDS011;62974;49.460;10.892;2022-11-11T13:18:09;6.10;;;3.10;;
73084;SDS011;62974;49.460;10.892;2022-11-11T13:20:45;6.18;;;2.80;;
73084;SDS011;62974;49.460;10.892;2022-11-11T13:23:20;7.72;;;3.25;;
73084;SDS011;62974;49.460;10.892;2022-11-11T13:25:53;8.10;;;3.60;;
73084;SDS011;62974;49.460;10.892;2022-11-11T13:28:28;5.95;;;3.28;;
73084;SDS011;62974;49.460;10.892;2022-11-11T13:31:02;6.32;;;2.80;;
73084;SDS011;62974;49.460;10.892;2022-11-11T13:33:41;4.97;;;2.38;;
73084;SDS011;62974;49.460;10.892;2022-11-11T13:36:13;5.00;;;2.90;;
73084;SDS011;62974;49.460;10.892;2022-11-11T13:38:44;5.20;;;2.53;;
73084;SDS011;62974;49.460;10.892;2022-11-11T13:41:20;4.38;;;2.42;;
73084;SDS011;62974;49.460;10.892;2022-11-11T13:43:50;9.73;;;3.45;;
73084;SDS011;62974;49.460;10.892;2022-11-11T13:46:29;4.93;;;2.72;;
73084;SDS011;62974;49.460;10.892;2022-11-11T13:49:04;3.88;;;2.50;;
73084;SDS011;62974;49.460;10.892;2022-11-11T13:51:36;3.13;;;1.88;;
73084;SDS011;62974;49.460;10.892;2022-11-11T13:54:18;9.02;;;2.30;;
73084;SDS011;62974;49.460;10.892;2022-11-11T13:56:51;4.45;;;2.10;;
73084;SDS011;62974;49.460;10.892;2022-11-11T13:59:20;4.47;;;2.38;;
73084;SDS011;62974;49.460;10.892;2022-11-11T14:07:52;5.32;;;2.35;;
73084;SDS011;62974;49.460;10.892;2022-11-11T14:16:12;7.38;;;3.03;;
73084;SDS011;62974;49.460;10.892;2022-11-11T14:19:28;7.97;;;2.35;;
73084;SDS011;62974;49.460;10.892;2022-11-11T14:21:58;6.88;;;2.22;;
73084;SDS011;62974;49.460;10.892;2022-11-11T14:24:30;5.93;;;2.92;;
73084;SDS011;62974;49.460;10.892;2022-11-11T14:27:02;4.28;;;2.38;;
73084;SDS011;62974;49.460;10.892;2022-11-11T14:29:48;5.32;;;2.35;;
73084;SDS011;62974;49.460;10.892;2022-11-11T14:32:21;7.38;;;2.88;;
73084;SDS011;62974;49.460;10.892;2022-11-11T14:35:05;6.70;;;2.70;;
73084;SDS011;62974;49.460;10.892;2022-11-11T14:37:53;3.58;;;1.90;;
73084;SDS011;62974;49.460;10.892;2022-11-11T14:40:29;2.85;;;2.10;;
73084;SDS011;62974;49.460;10.892;2022-11-11T14:42:59;4.72;;;2.72;;
73084;SDS011;62974;49.460;10.892;2022-11-11T14:45:52;4.10;;;2.53;;
73084;SDS011;62974;49.460;10.892;2022-11-11T14:54:14;6.00;;;2.85;;
73084;SDS011;62974;49.460;10.892;2022-11-11T14:56:52;5.97;;;2.60;;
73084;SDS011;62974;49.460;10.892;2022-11-11T14:59:28;4.25;;;2.13;;
73084;SDS011;62974;49.460;10.892;2022-11-11T15:01:59;4.90;;;2.33;;
73084;SDS011;62974;49.460;10.892;2022-11-11T15:04:33;4.60;;;2.35;;
73084;SDS011;62974;49.460;10.892;2022-11-11T15:07:02;5.15;;;2.50;;
73084;SDS011;62974;49.460;10.892;2022-11-11T15:09:38;6.68;;;3.40;;
73084;SDS011;62974;49.460;10.892;2022-11-11T15:12:18;5.65;;;2.97;;
73084;SDS011;62974;49.460;10.892;2022-11-11T15:14:53;5.28;;;2.33;;
73084;SDS011;62974;49.460;10.892;2022-11-11T15:17:33;4.55;;;2.47;;
73084;SDS011;62974;49.460;10.892;2022-11-11T15:20:14;6.57;;;2.80;;
73084;SDS011;62974;49.460;10.892;2022-11-11T15:22:54;4.72;;;2.55;;
73084;SDS011;62974;49.460;10.892;2022-11-11T15:25:32;9.75;;;3.88;;
73084;SDS011;62974;49.460;10.892;2022-11-11T15:28:13;25.30;;;10.73;;
73084;SDS011;62974;49.460;10.892;2022-11-11T15:31:04;14.18;;;6.13;;
73084;SDS011;62974;49.460;10.892;2022-11-11T15:33:44;22.60;;;11.35;;
73084;SDS011;62974;49.460;10.892;2022-11-11T15:36:21;16.83;;;8.93;;
73084;SDS011;62974;49.460;10.892;2022-11-11T15:39:03;10.15;;;6.07;;
73084;SDS011;62974;49.460;10.892;2022-11-11T15:41:34;10.38;;;4.82;;
73084;SDS011;62974;49.460;10.892;2022-11-11T15:44:06;10.00;;;5.38;;
73084;SDS011;62974;49.460;10.892;2022-11-11T15:46:40;9.30;;;5.28;;
73084;SDS011;62974;49.460;10.892;2022-11-11T15:49:12;6.00;;;2.92;;
73084;SDS011;62974;49.460;10.892;2022-11-11T15:51:41;4.93;;;3.20;;